Time;durP1;ratioP1;P1;durP2;ratioP2;P2;SDS_P1;SDS_P2;PMS_P1;PMS_P2;Temp;Humidity;BMP_temperature;BMP_pressure;BME280_temperature;BME280_humidity;BME280_pressure;Samples;Min_cycle;Max_cycle;Signal;HPM_P1;HPM_P2
2022/01/10 00:00:06;;;;;;;45.00;14.07;;;3.70;99.90;;;;;;4886689;29;20036;-68
2022/01/10 00:02:38;;;;;;;52.28;14.15;;;3.70;99.90;;;;;;4890946;29;20169;-67
2022/01/10 00:05:03;;;;;;;48.30;14.00;;;3.70;99.90;;;;;;4898936;29;20072;-67
2022/01/10 00:07:29;;;;;;;51.38;14.68;;;3.70;99.90;;;;;;4896224;29;20056;-67
2022/01/10 00:09:55;;;;;;;47.05;14.80;;;3.70;99.90;;;;;;4890485;29;20499;-67
2022/01/10 00:12:20;;;;;;;51.08;13.57;;;3.70;99.90;;;;;;4894006;29;20072;-68
2022/01/10 00:14:45;;;;;;;44.50;13.82;;;3.80;99.90;;;;;;4889929;29;20035;-68
2022/01/10 00:17:11;;;;;;;42.33;13.93;;;3.70;99.90;;;;;;4892611;29;20045;-68
2022/01/10 00:19:36;;;;;;;45.80;13.35;;;3.80;99.90;;;;;;4901049;29;20514;-68
2022/01/10 00:22:02;;;;;;;52.03;14.68;;;3.80;99.90;;;;;;4883409;29;20080;-68
2022/01/10 00:24:27;;;;;;;43.75;16.67;;;3.80;99.90;;;;;;4897985;29;20717;-68
2022/01/10 00:26:53;;;;;;;50.95;15.00;;;3.90;99.90;;;;;;4898582;29;20485;-68
2022/01/10 00:29:18;;;;;;;43.28;13.50;;;3.90;99.90;;;;;;4902512;29;20059;-68
2022/01/10 00:31:44;;;;;;;38.95;14.00;;;4.00;99.90;;;;;;4888658;29;20086;-68
2022/01/10 00:34:11;;;;;;;41.88;13.63;;;4.00;99.90;;;;;;4880667;29;20028;-68
2022/01/10 00:36:37;;;;;;;39.28;12.38;;;4.00;99.90;;;;;;4896680;29;20032;-68
2022/01/10 00:39:02;;;;;;;42.25;13.52;;;4.10;99.90;;;;;;4894359;29;20867;-68
2022/01/10 00:41:28;;;;;;;36.78;13.65;;;4.10;99.90;;;;;;4879595;29;20036;-68
2022/01/10 00:43:54;;;;;;;39.03;13.70;;;4.10;99.90;;;;;;4886646;29;20074;-68
2022/01/10 00:46:20;;;;;;;43.08;14.10;;;4.10;99.90;;;;;;4895118;29;20123;-68
2022/01/10 00:48:45;;;;;;;42.35;13.38;;;4.10;99.90;;;;;;4878868;29;20032;-68
2022/01/10 00:51:11;;;;;;;42.70;13.85;;;4.10;99.90;;;;;;4896690;29;20060;-68
2022/01/10 00:53:37;;;;;;;39.58;13.57;;;4.10;99.90;;;;;;4887944;29;20161;-68
2022/01/10 00:56:02;;;;;;;40.25;13.00;;;4.10;99.90;;;;;;4885545;29;20119;-68
2022/01/10 00:58:28;;;;;;;40.97;13.18;;;4.10;99.90;;;;;;4887077;29;20343;-68
2022/01/10 01:00:54;;;;;;;40.05;13.18;;;4.10;99.90;;;;;;4896551;29;20048;-68
2022/01/10 01:03:20;;;;;;;40.03;13.55;;;4.20;99.90;;;;;;4888169;29;20883;-68
2022/01/10 01:05:46;;;;;;;38.92;13.23;;;4.20;99.90;;;;;;4894568;29;20123;-68
2022/01/10 01:08:12;;;;;;;30.10;12.48;;;4.20;99.90;;;;;;4877109;29;20049;-68
2022/01/10 01:13:10;;;;;;;32.47;12.68;;;4.30;99.90;;;;;;4896316;29;20045;-68
2022/01/10 01:15:47;;;;;;;42.13;12.35;;;4.30;99.90;;;;;;4879138;29;20040;-68
2022/01/10 01:18:30;;;;;;;39.67;12.05;;;4.30;99.90;;;;;;4896765;29;20055;-68
2022/01/10 01:26:25;;;;;;;40.70;11.82;;;4.40;99.90;;;;;;4900264;29;20190;-68
2022/01/10 01:28:51;;;;;;;31.17;11.98;;;4.40;99.90;;;;;;4894054;29;20527;-68
2022/01/10 01:31:16;;;;;;;37.75;13.27;;;4.40;99.90;;;;;;4885821;29;20040;-67
2022/01/10 01:33:42;;;;;;;29.50;11.73;;;4.40;99.90;;;;;;4895844;29;20115;-67
2022/01/10 01:36:08;;;;;;;36.42;12.18;;;4.40;99.90;;;;;;4882775;29;20032;-68
2022/01/10 01:38:34;;;;;;;40.10;11.55;;;4.40;99.90;;;;;;4882910;29;20860;-67
2022/01/10 01:41:17;;;;;;;42.33;12.68;;;4.40;99.90;;;;;;4880793;29;20028;-68
2022/01/10 01:43:42;;;;;;;32.88;10.70;;;4.40;99.90;;;;;;4903072;29;20864;-68
2022/01/10 01:46:08;;;;;;;25.40;11.30;;;4.40;99.90;;;;;;4884247;29;20036;-68
2022/01/10 01:48:34;;;;;;;39.90;11.55;;;4.40;99.90;;;;;;4884176;29;20548;-68
2022/01/10 01:51:00;;;;;;;37.63;11.55;;;4.40;99.90;;;;;;4886516;29;20048;-68
2022/01/10 01:53:26;;;;;;;34.83;11.57;;;4.40;99.90;;;;;;4885814;29;20143;-68
2022/01/10 01:55:51;;;;;;;34.15;11.93;;;4.40;99.90;;;;;;4869031;29;20064;-68
2022/01/10 01:58:17;;;;;;;35.15;11.60;;;4.40;99.90;;;;;;4875319;29;20390;-68
2022/01/10 02:00:42;;;;;;;30.05;10.38;;;4.50;99.90;;;;;;4878655;29;20531;-68
2022/01/10 02:03:08;;;;;;;32.85;11.23;;;4.50;99.90;;;;;;4877006;29;20092;-68
2022/01/10 02:05:34;;;;;;;33.22;12.18;;;4.80;99.90;;;;;;4886133;29;20036;-68
2022/01/10 02:08:00;;;;;;;33.15;10.95;;;4.50;99.90;;;;;;4884510;29;20504;-68
2022/01/10 02:10:26;;;;;;;32.17;11.23;;;4.50;99.90;;;;;;4881305;29;20035;-68
2022/01/10 02:12:53;;;;;;;38.67;11.52;;;4.50;99.90;;;;;;4864528;29;20067;-68
2022/01/10 02:15:24;;;;;;;30.65;12.30;;;4.50;99.90;;;;;;4888579;29;20036;-68
2022/01/10 02:17:55;;;;;;;36.08;11.13;;;4.50;99.90;;;;;;4874578;29;20503;-68
2022/01/10 02:20:20;;;;;;;33.90;11.40;;;4.50;99.90;;;;;;4875668;29;20530;-67
2022/01/10 02:22:46;;;;;;;38.63;12.38;;;4.50;99.90;;;;;;4905749;29;20028;-68
2022/01/10 02:25:34;;;;;;;36.20;11.85;;;4.90;99.90;;;;;;4892720;29;20047;-68
2022/01/10 02:28:00;;;;;;;32.47;11.05;;;4.50;99.90;;;;;;4885429;29;20032;-68
2022/01/10 02:30:25;;;;;;;40.80;12.38;;;4.50;99.90;;;;;;4902933;29;20055;-67
2022/01/10 02:32:51;;;;;;;32.83;12.05;;;4.60;99.90;;;;;;4898806;29;20119;-67
2022/01/10 02:35:17;;;;;;;34.65;11.98;;;4.60;99.90;;;;;;4889393;29;20600;-68
2022/01/10 02:37:43;;;;;;;35.55;12.60;;;4.20;99.90;;;;;;4888584;29;20037;-67
2022/01/10 02:40:09;;;;;;;40.83;12.52;;;4.50;99.90;;;;;;4876471;29;20117;-67
2022/01/10 02:42:36;;;;;;;36.58;11.93;;;4.50;99.90;;;;;;4883862;29;20114;-68
2022/01/10 02:45:03;;;;;;;33.63;12.40;;;4.50;99.90;;;;;;4894110;29;20119;-68
2022/01/10 02:47:31;;;;;;;40.63;12.23;;;4.50;99.90;;;;;;4881546;29;20470;-67
2022/01/10 02:49:56;;;;;;;34.55;11.77;;;4.50;99.90;;;;;;4898479;29;20028;-67
2022/01/10 02:52:22;;;;;;;35.45;12.60;;;4.50;99.90;;;;;;4871527;29;20036;-68
2022/01/10 02:54:48;;;;;;;28.92;10.93;;;4.50;99.90;;;;;;4878577;29;20512;-67
2022/01/10 02:57:17;;;;;;;33.95;12.13;;;4.50;99.90;;;;;;4881038;29;20032;-68
2022/01/10 02:59:43;;;;;;;36.17;13.05;;;4.50;99.90;;;;;;4880886;29;20035;-67
2022/01/10 03:02:10;;;;;;;34.95;12.20;;;4.50;99.90;;;;;;4886476;29;20064;-68
2022/01/10 03:04:36;;;;;;;33.42;11.65;;;4.50;99.90;;;;;;4888846;29;20043;-68
2022/01/10 03:07:02;;;;;;;38.33;13.25;;;4.50;99.90;;;;;;4885658;29;20493;-68
2022/01/10 03:09:28;;;;;;;34.10;11.38;;;4.50;99.90;;;;;;4899568;29;20087;-67
2022/01/10 03:11:53;;;;;;;37.55;11.73;;;4.50;99.90;;;;;;4881794;29;20478;-68
2022/01/10 03:14:19;;;;;;;39.25;12.23;;;4.50;99.90;;;;;;4874645;29;20044;-68
2022/01/10 03:16:45;;;;;;;47.05;13.43;;;4.50;99.90;;;;;;4887637;29;20067;-67
2022/01/10 03:19:10;;;;;;;44.63;13.00;;;4.70;99.90;;;;;;4880503;29;20044;-67
2022/01/10 03:21:36;;;;;;;38.45;12.48;;;4.50;99.90;;;;;;4887221;29;20142;-68
2022/01/10 03:24:01;;;;;;;32.08;12.93;;;4.50;99.90;;;;;;4879696;29;20035;-68
2022/01/10 03:26:27;;;;;;;32.13;12.18;;;4.50;99.90;;;;;;4887554;29;20028;-68
2022/01/10 03:28:53;;;;;;;39.10;11.88;;;4.50;99.90;;;;;;4885799;29;20023;-67
2022/01/10 03:31:19;;;;;;;31.88;11.20;;;4.50;99.90;;;;;;4898748;29;20749;-68
2022/01/10 03:33:45;;;;;;;44.08;13.32;;;4.50;99.90;;;;;;4883329;29;20035;-68
2022/01/10 03:36:10;;;;;;;30.35;11.38;;;4.50;99.90;;;;;;4888009;29;20206;-68
2022/01/10 03:38:36;;;;;;;29.33;11.10;;;4.50;99.90;;;;;;4881480;29;20039;-68
2022/01/10 03:41:01;;;;;;;35.95;11.90;;;4.50;99.90;;;;;;4887485;29;20141;-68
2022/01/10 03:43:27;;;;;;;38.75;11.55;;;4.50;99.90;;;;;;4887598;29;20036;-68
2022/01/10 03:45:53;;;;;;;29.88;11.32;;;4.50;99.90;;;;;;4880182;29;20040;-68
2022/01/10 03:48:19;;;;;;;38.53;12.07;;;4.50;99.90;;;;;;4896911;29;20056;-68
2022/01/10 03:50:44;;;;;;;33.20;11.77;;;4.50;99.90;;;;;;4864772;29;20032;-68
2022/01/10 03:53:12;;;;;;;31.65;11.52;;;4.50;99.90;;;;;;4881114;29;20036;-68
2022/01/10 03:55:38;;;;;;;45.10;15.23;;;4.40;99.90;;;;;;4888257;29;20028;-68
2022/01/10 03:58:04;;;;;;;39.78;11.55;;;4.60;99.90;;;;;;4872696;29;20115;-68
2022/01/10 04:00:30;;;;;;;35.83;11.38;;;4.50;99.90;;;;;;4890176;29;20033;-68
2022/01/10 04:03:03;;;;;;;32.33;11.38;;;4.60;99.90;;;;;;4900968;29;20040;-68
2022/01/10 04:05:36;;;;;;;32.20;11.00;;;4.50;99.90;;;;;;4889093;29;20031;-68
2022/01/10 04:08:02;;;;;;;24.77;10.77;;;4.50;99.90;;;;;;4878969;29;20032;-68
2022/01/10 04:10:27;;;;;;;25.48;9.85;;;4.60;99.90;;;;;;4886572;29;20042;-68
2022/01/10 04:12:53;;;;;;;31.13;10.02;;;4.60;99.90;;;;;;4888221;29;20031;-68
2022/01/10 04:15:19;;;;;;;32.17;10.85;;;4.50;99.90;;;;;;4873647;29;20122;-69
2022/01/10 04:17:45;;;;;;;32.72;11.45;;;4.60;99.90;;;;;;4885940;29;20503;-69
2022/01/10 04:20:11;;;;;;;41.35;11.73;;;4.30;99.90;;;;;;4872206;29;20036;-68
2022/01/10 04:22:36;;;;;;;44.55;14.00;;;4.60;99.90;;;;;;4898151;29;20035;-68
2022/01/10 04:25:03;;;;;;;35.95;11.35;;;4.60;99.90;;;;;;4894271;29;20028;-68
2022/01/10 04:27:32;;;;;;;40.65;11.90;;;4.60;99.90;;;;;;4892924;29;20644;-68
2022/01/10 04:29:59;;;;;;;35.40;11.90;;;4.60;99.90;;;;;;4885430;29;20127;-68
2022/01/10 04:32:26;;;;;;;37.25;11.70;;;4.60;99.90;;;;;;4886228;29;20036;-68
2022/01/10 04:34:52;;;;;;;33.00;11.60;;;4.60;99.90;;;;;;4863258;29;20033;-68
2022/01/10 04:37:17;;;;;;;28.98;11.60;;;4.60;99.90;;;;;;4885186;29;20915;-68
2022/01/10 04:39:43;;;;;;;29.08;10.70;;;4.60;99.90;;;;;;4867430;29;20024;-68
2022/01/10 04:42:08;;;;;;;32.15;11.48;;;4.50;99.90;;;;;;4894011;29;20070;-68
2022/01/10 04:44:34;;;;;;;39.22;12.00;;;4.50;99.90;;;;;;4873365;29;20032;-68
2022/01/10 04:47:01;;;;;;;37.97;11.75;;;4.60;99.90;;;;;;4886077;29;20032;-68
2022/01/10 04:49:26;;;;;;;27.52;10.98;;;4.50;99.90;;;;;;4885587;29;20603;-68
2022/01/10 04:51:53;;;;;;;44.55;11.52;;;4.60;99.90;;;;;;4879116;29;20035;-68
2022/01/10 04:54:18;;;;;;;26.67;10.75;;;4.60;99.90;;;;;;4877637;29;20032;-68
2022/01/10 04:56:44;;;;;;;36.75;11.45;;;4.60;99.90;;;;;;4884339;29;20115;-68
2022/01/10 04:59:09;;;;;;;37.60;10.73;;;4.60;99.90;;;;;;4879942;29;20622;-68
2022/01/10 05:01:35;;;;;;;29.38;10.60;;;4.60;99.90;;;;;;4898750;29;20028;-68
2022/01/10 05:04:01;;;;;;;39.53;12.00;;;4.50;99.90;;;;;;4894573;29;20145;-68
2022/01/10 05:06:26;;;;;;;35.45;10.60;;;4.50;99.90;;;;;;4884903;29;20774;-68
2022/01/10 05:08:53;;;;;;;37.40;11.38;;;4.50;99.90;;;;;;4897211;29;20563;-67
2022/01/10 05:11:41;;;;;;;31.70;11.35;;;4.50;99.90;;;;;;4881147;29;20036;-68
2022/01/10 05:14:08;;;;;;;35.38;11.27;;;4.60;99.90;;;;;;4876687;29;20566;-68
2022/01/10 05:16:34;;;;;;;31.50;11.20;;;4.60;99.90;;;;;;4891412;29;20033;-68
2022/01/10 05:19:00;;;;;;;34.75;11.02;;;4.60;99.90;;;;;;4887183;29;20029;-68
2022/01/10 05:21:25;;;;;;;35.92;11.52;;;4.50;99.90;;;;;;4887909;29;20028;-68
2022/01/10 05:23:51;;;;;;;28.48;10.82;;;4.50;99.90;;;;;;4886333;29;20032;-68
2022/01/10 05:26:16;;;;;;;40.28;11.00;;;4.50;99.90;;;;;;4877915;29;20119;-68
2022/01/10 05:28:42;;;;;;;29.55;10.40;;;4.50;99.90;;;;;;4884547;29;20185;-68
2022/01/10 05:31:08;;;;;;;33.40;10.88;;;4.50;99.90;;;;;;4875888;29;20035;-68
2022/01/10 05:33:45;;;;;;;35.90;11.15;;;4.50;99.90;;;;;;4886902;29;20028;-68
2022/01/10 05:36:10;;;;;;;32.40;10.10;;;4.50;99.90;;;;;;4886733;29;20472;-68
2022/01/10 05:38:36;;;;;;;31.23;11.63;;;4.50;99.90;;;;;;4887590;29;20453;-68
2022/01/10 05:41:01;;;;;;;28.38;10.98;;;4.50;99.90;;;;;;4898301;29;20056;-68
2022/01/10 05:43:27;;;;;;;26.10;9.73;;;4.50;99.90;;;;;;4885219;29;20100;-68
2022/01/10 05:45:54;;;;;;;27.25;9.35;;;4.30;99.90;;;;;;4885043;29;20415;-68
2022/01/10 05:48:26;;;;;;;28.33;8.80;;;4.30;99.90;;;;;;4884463;29;20143;-68
2022/01/10 05:50:56;;;;;;;24.45;8.60;;;4.20;99.90;;;;;;4886808;29;20025;-68
2022/01/10 05:53:22;;;;;;;22.10;8.60;;;4.20;99.90;;;;;;4885879;29;20144;-68
2022/01/10 05:55:48;;;;;;;26.48;8.57;;;4.10;99.90;;;;;;4888894;29;20508;-68
2022/01/10 05:58:14;;;;;;;21.05;8.23;;;4.20;99.90;;;;;;4877110;29;20509;-68
2022/01/10 06:00:40;;;;;;;23.77;8.65;;;4.20;99.90;;;;;;4885910;29;20119;-68
2022/01/10 06:03:05;;;;;;;34.78;10.45;;;4.10;99.90;;;;;;4898340;29;20036;-68
2022/01/10 06:05:37;;;;;;;32.08;11.23;;;4.10;99.90;;;;;;4874452;29;20039;-68
2022/01/10 06:08:05;;;;;;;31.90;11.77;;;4.10;99.90;;;;;;4887832;29;20029;-68
2022/01/10 06:10:31;;;;;;;37.85;12.30;;;4.00;99.90;;;;;;4885316;29;20029;-68
2022/01/10 06:13:06;;;;;;;28.65;10.60;;;4.00;99.90;;;;;;4871445;29;20084;-67
2022/01/10 06:15:32;;;;;;;34.50;10.40;;;4.00;99.90;;;;;;4890834;29;20051;-68
2022/01/10 06:17:58;;;;;;;29.58;10.85;;;3.80;99.90;;;;;;4882639;29;20104;-68
2022/01/10 06:20:24;;;;;;;33.53;10.57;;;3.70;99.90;;;;;;4883274;29;20037;-68
2022/01/10 06:22:50;;;;;;;30.77;9.63;;;3.50;99.90;;;;;;4885114;29;20059;-68
2022/01/10 06:25:15;;;;;;;32.25;10.75;;;3.40;99.90;;;;;;4885907;29;20084;-68
2022/01/10 06:27:41;;;;;;;43.17;9.38;;;3.50;99.90;;;;;;4889481;29;20024;-68
2022/01/10 06:30:07;;;;;;;34.95;9.88;;;3.40;99.90;;;;;;4905546;29;20039;-68
2022/01/10 06:32:36;;;;;;;42.33;11.38;;;3.50;99.90;;;;;;4874057;29;20029;-68
2022/01/10 06:35:04;;;;;;;32.38;11.23;;;3.50;99.90;;;;;;4897995;29;20028;-68
2022/01/10 06:37:30;;;;;;;43.30;12.18;;;3.50;99.90;;;;;;4887131;29;20523;-68
2022/01/10 06:39:56;;;;;;;45.95;12.30;;;3.60;99.90;;;;;;4903883;29;20036;-68
2022/01/10 06:42:21;;;;;;;42.70;13.05;;;3.60;99.90;;;;;;4889032;29;20520;-68
2022/01/10 06:44:48;;;;;;;44.67;13.23;;;3.70;99.90;;;;;;4889952;29;20063;-68
2022/01/10 06:47:14;;;;;;;53.65;15.13;;;3.80;99.90;;;;;;4892743;29;20559;-68
2022/01/10 06:49:40;;;;;;;39.70;12.48;;;3.80;99.90;;;;;;4885386;29;20107;-68
2022/01/10 06:52:05;;;;;;;38.65;13.05;;;3.70;99.90;;;;;;4881343;29;20032;-68
2022/01/10 06:54:31;;;;;;;48.33;13.55;;;3.80;99.90;;;;;;4873031;29;20056;-68
2022/01/10 06:56:59;;;;;;;47.80;13.15;;;3.90;99.90;;;;;;4883343;29;20052;-68
2022/01/10 06:59:26;;;;;;;40.70;13.30;;;4.00;99.90;;;;;;4886751;29;20042;-68
2022/01/10 07:01:51;;;;;;;39.95;13.48;;;4.00;99.90;;;;;;4883952;29;20024;-68
2022/01/10 07:04:17;;;;;;;37.55;13.50;;;4.10;99.90;;;;;;4881896;29;20037;-68
2022/01/10 07:06:43;;;;;;;50.58;13.85;;;4.00;99.90;;;;;;4885834;29;20039;-68
2022/01/10 07:09:15;;;;;;;44.25;13.98;;;4.10;99.90;;;;;;4875675;29;20028;-68
2022/01/10 07:11:53;;;;;;;52.90;16.73;;;4.10;99.90;;;;;;4870166;29;20063;-68
2022/01/10 07:14:19;;;;;;;62.70;14.30;;;4.10;99.90;;;;;;4881795;29;20041;-68
2022/01/10 07:16:49;;;;;;;48.13;15.75;;;4.10;99.90;;;;;;4886962;29;20754;-68
2022/01/10 07:19:15;;;;;;;58.80;15.27;;;4.00;99.90;;;;;;4887904;29;20059;-68
2022/01/10 07:21:41;;;;;;;39.42;14.20;;;4.00;99.90;;;;;;4881161;29;20135;-68
2022/01/10 07:24:09;;;;;;;42.53;14.77;;;3.90;99.90;;;;;;4884360;29;20056;-68
2022/01/10 07:26:35;;;;;;;39.72;13.63;;;3.80;99.90;;;;;;4901555;29;20115;-68
2022/01/10 07:29:00;;;;;;;43.50;12.65;;;3.80;99.90;;;;;;4888922;29;20524;-68
2022/01/10 07:31:26;;;;;;;40.38;13.27;;;3.80;99.90;;;;;;4891963;29;20036;-68
2022/01/10 07:33:51;;;;;;;33.75;11.43;;;3.80;99.90;;;;;;4887146;29;20059;-68
2022/01/10 07:36:17;;;;;;;28.58;11.65;;;3.70;99.90;;;;;;4881722;29;20033;-68
2022/01/10 07:38:42;;;;;;;39.63;11.30;;;3.60;99.90;;;;;;4887150;29;20046;-68
2022/01/10 07:41:08;;;;;;;37.63;12.05;;;3.60;99.90;;;;;;4901232;29;20048;-67
2022/01/10 07:43:33;;;;;;;34.55;11.60;;;3.60;99.90;;;;;;4898825;29;20047;-68
2022/01/10 07:46:01;;;;;;;38.38;12.38;;;3.60;99.90;;;;;;4887196;29;20024;-68
2022/01/10 07:48:26;;;;;;;45.97;12.30;;;3.60;99.90;;;;;;4899752;29;20139;-68
2022/01/10 07:50:52;;;;;;;36.67;12.43;;;3.70;99.90;;;;;;4899086;29;20039;-68
2022/01/10 07:53:17;;;;;;;46.40;12.95;;;3.70;99.90;;;;;;4872518;29;20950;-68
2022/01/10 07:55:43;;;;;;;36.67;12.70;;;3.70;99.90;;;;;;4896229;29;20043;-68
2022/01/10 07:58:08;;;;;;;41.97;13.70;;;3.70;99.90;;;;;;4903501;29;20646;-68
2022/01/10 08:00:34;;;;;;;43.00;12.70;;;3.80;99.90;;;;;;4898175;29;20127;-69
2022/01/10 08:02:59;;;;;;;39.78;12.20;;;3.80;99.90;;;;;;4895421;29;20056;-68
2022/01/10 08:05:25;;;;;;;36.50;13.18;;;3.90;99.90;;;;;;4898183;29;20036;-68
2022/01/10 08:07:51;;;;;;;49.83;13.73;;;3.90;99.90;;;;;;4901933;29;20142;-68
2022/01/10 08:10:17;;;;;;;32.47;11.52;;;4.00;99.90;;;;;;4900087;29;20135;-68
2022/01/10 08:12:42;;;;;;;47.47;13.98;;;4.00;99.90;;;;;;4896151;29;20036;-68
2022/01/10 08:15:08;;;;;;;40.42;12.90;;;4.00;99.90;;;;;;4898827;29;20496;-68
2022/01/10 08:17:33;;;;;;;48.47;13.90;;;4.10;99.90;;;;;;4897756;29;20035;-68
2022/01/10 08:19:59;;;;;;;57.25;14.88;;;4.20;99.90;;;;;;4896369;29;20513;-68
2022/01/10 08:22:24;;;;;;;42.88;14.70;;;4.30;99.90;;;;;;4885292;29;20946;-68
2022/01/10 08:24:52;;;;;;;52.28;15.85;;;4.40;99.90;;;;;;4899255;29;20036;-68
2022/01/10 08:27:17;;;;;;;51.33;16.25;;;4.40;99.90;;;;;;4897002;29;20058;-68
2022/01/10 08:29:43;;;;;;;50.22;16.55;;;4.50;99.90;;;;;;4888357;29;20032;-68
2022/01/10 08:32:08;;;;;;;51.53;16.17;;;4.50;99.90;;;;;;4896777;29;20920;-68
2022/01/10 08:34:34;;;;;;;48.38;16.23;;;4.50;99.90;;;;;;4901108;29;20072;-68
2022/01/10 08:36:59;;;;;;;49.13;16.00;;;4.60;99.90;;;;;;4903537;29;20630;-68
2022/01/10 08:39:25;;;;;;;54.67;18.38;;;4.60;99.90;;;;;;4903904;29;20044;-68
2022/01/10 08:41:50;;;;;;;55.00;16.58;;;4.60;99.90;;;;;;4900792;29;20158;-68
2022/01/10 08:44:17;;;;;;;42.63;16.45;;;4.60;99.90;;;;;;4898303;29;20074;-68
2022/01/10 08:46:43;;;;;;;52.85;16.80;;;4.70;99.90;;;;;;4894528;29;20032;-68
2022/01/10 08:49:08;;;;;;;51.40;16.58;;;4.70;99.90;;;;;;4880440;29;20028;-68
2022/01/10 08:51:34;;;;;;;44.63;16.88;;;4.70;99.90;;;;;;4900783;29;20043;-68
2022/01/10 08:54:00;;;;;;;50.17;17.42;;;4.80;99.90;;;;;;4899718;29;20829;-68
2022/01/10 08:56:25;;;;;;;44.67;15.98;;;4.70;99.90;;;;;;4900902;29;20040;-68
2022/01/10 08:58:51;;;;;;;51.58;15.70;;;4.70;99.90;;;;;;4897635;29;20036;-67
2022/01/10 09:01:19;;;;;;;46.70;17.85;;;4.70;99.90;;;;;;4896913;29;20592;-68
2022/01/10 09:03:44;;;;;;;53.13;18.70;;;4.70;99.90;;;;;;4899081;29;20028;-70
2022/01/10 09:06:10;;;;;;;73.95;19.58;;;4.80;99.90;;;;;;4898085;29;20515;-70
2022/01/10 09:08:35;;;;;;;52.80;17.65;;;4.80;99.90;;;;;;4885009;29;20964;-71
2022/01/10 09:11:01;;;;;;;48.83;16.77;;;4.80;99.90;;;;;;4899476;29;20043;-71
2022/01/10 09:13:26;;;;;;;37.95;15.88;;;4.90;99.90;;;;;;4901506;29;20036;-68
2022/01/10 09:15:52;;;;;;;37.53;14.40;;;4.90;99.90;;;;;;4897531;29;20036;-69
2022/01/10 09:18:17;;;;;;;45.72;13.82;;;4.80;99.90;;;;;;4883584;29;20091;-69
2022/01/10 09:20:43;;;;;;;42.60;13.27;;;4.90;99.90;;;;;;4886707;29;20044;-69
2022/01/10 09:23:08;;;;;;;31.90;12.05;;;4.90;99.90;;;;;;4903731;29;20040;-69
2022/01/10 09:25:34;;;;;;;34.25;11.15;;;4.90;99.90;;;;;;4899712;29;20382;-68
2022/01/10 09:27:59;;;;;;;24.27;10.15;;;4.90;99.90;;;;;;4903112;29;20039;-68
2022/01/10 09:30:25;;;;;;;31.52;11.05;;;4.90;99.90;;;;;;4902622;29;20050;-68
2022/01/10 09:32:50;;;;;;;25.70;9.80;;;4.90;99.90;;;;;;4904383;29;20049;-68
2022/01/10 09:35:16;;;;;;;28.67;10.48;;;5.00;99.90;;;;;;4889366;29;20032;-68
2022/01/10 09:37:41;;;;;;;27.70;10.68;;;5.10;99.90;;;;;;4907503;29;20043;-68
2022/01/10 09:40:07;;;;;;;25.58;9.68;;;5.20;99.90;;;;;;4888668;29;20549;-69
2022/01/10 09:42:33;;;;;;;24.23;9.57;;;5.40;99.90;;;;;;4902826;29;20050;-68
2022/01/10 09:44:59;;;;;;;31.90;12.02;;;5.60;99.90;;;;;;4895533;29;20083;-69
2022/01/10 09:47:24;;;;;;;48.42;18.65;;;5.70;99.90;;;;;;4903245;29;20119;-68
2022/01/10 09:49:50;;;;;;;24.35;11.45;;;5.80;99.90;;;;;;4903661;29;20477;-68
2022/01/10 09:52:16;;;;;;;33.83;12.63;;;5.80;99.90;;;;;;4907023;29;20119;-68
2022/01/10 09:54:41;;;;;;;28.05;9.32;;;5.90;99.90;;;;;;4899007;29;20043;-68
2022/01/10 09:57:07;;;;;;;25.58;8.75;;;6.00;99.90;;;;;;4904529;29;20032;-68
2022/01/10 09:59:32;;;;;;;22.70;8.93;;;6.10;99.90;;;;;;4888644;29;20120;-69
2022/01/10 10:01:58;;;;;;;29.88;9.25;;;6.10;99.90;;;;;;4902708;29;20043;-67
2022/01/10 10:04:23;;;;;;;23.58;9.43;;;6.10;99.90;;;;;;4890296;29;20046;-69
2022/01/10 10:06:49;;;;;;;29.38;9.15;;;6.10;99.90;;;;;;4898708;29;20043;-68
2022/01/10 10:09:14;;;;;;;29.63;10.23;;;6.00;99.90;;;;;;4900772;29;20035;-68
2022/01/10 10:11:40;;;;;;;24.90;9.75;;;6.00;99.90;;;;;;4904613;29;20042;-68
2022/01/10 10:14:05;;;;;;;29.23;9.95;;;5.80;99.90;;;;;;4891454;29;20039;-68
2022/01/10 10:16:31;;;;;;;34.03;9.70;;;5.90;99.90;;;;;;4903545;29;20481;-68
2022/01/10 10:18:56;;;;;;;24.92;10.25;;;5.90;99.90;;;;;;4903603;29;20029;-68
2022/01/10 10:21:22;;;;;;;26.75;10.05;;;5.80;99.90;;;;;;4900436;29;20044;-68
2022/01/10 10:23:48;;;;;;;31.63;11.05;;;5.80;99.90;;;;;;4888675;29;20099;-68
2022/01/10 10:26:13;;;;;;;28.25;11.48;;;5.90;99.90;;;;;;4900736;29;20076;-68
2022/01/10 10:28:39;;;;;;;36.67;11.90;;;5.80;99.90;;;;;;4897323;29;20441;-68
2022/01/10 10:31:04;;;;;;;36.50;10.00;;;5.80;99.90;;;;;;4901321;29;20032;-68
2022/01/10 10:33:30;;;;;;;26.15;8.57;;;5.90;99.90;;;;;;4899934;29;20038;-68
2022/01/10 10:35:56;;;;;;;27.63;10.48;;;5.80;99.90;;;;;;4897521;29;20033;-69
2022/01/10 10:38:21;;;;;;;23.60;7.97;;;5.80;99.90;;;;;;4883663;29;20039;-68
2022/01/10 10:40:46;;;;;;;38.28;14.50;;;5.80;99.90;;;;;;4901697;29;20408;-68
2022/01/10 10:43:12;;;;;;;69.97;29.17;;;5.80;99.90;;;;;;4905324;29;20040;-68
2022/01/10 10:45:37;;;;;;;33.78;11.35;;;5.90;99.90;;;;;;4905858;29;20032;-69
2022/01/10 10:48:05;;;;;;;35.80;10.45;;;6.00;99.90;;;;;;4882307;29;20778;-69
2022/01/10 10:50:34;;;;;;;28.52;10.77;;;6.00;99.90;;;;;;4888750;29;20036;-68
2022/01/10 10:52:59;;;;;;;26.58;9.23;;;6.00;99.90;;;;;;4886992;29;20028;-68
2022/01/10 10:55:25;;;;;;;39.15;9.80;;;6.00;99.90;;;;;;4903019;29;20043;-68
2022/01/10 10:57:50;;;;;;;30.77;11.68;;;6.00;99.90;;;;;;4901955;29;20032;-68
2022/01/10 11:00:16;;;;;;;23.00;9.05;;;5.90;99.90;;;;;;4903802;29;20132;-68
2022/01/10 11:02:41;;;;;;;26.60;9.13;;;6.00;99.90;;;;;;4907199;29;20039;-68
2022/01/10 11:05:07;;;;;;;50.35;21.23;;;6.00;99.90;;;;;;4902756;29;20092;-65
2022/01/10 11:07:34;;;;;;;28.45;10.82;;;5.90;99.90;;;;;;4902650;29;20039;-65
2022/01/10 11:09:59;;;;;;;26.77;10.55;;;5.90;99.90;;;;;;4887608;29;20060;-65
2022/01/10 11:12:25;;;;;;;25.48;10.80;;;6.00;99.90;;;;;;4904461;29;20059;-64
2022/01/10 11:14:50;;;;;;;65.22;27.05;;;6.00;99.90;;;;;;4900641;29;20040;-65
2022/01/10 11:17:16;;;;;;;88.10;40.45;;;6.00;99.90;;;;;;4868937;29;20108;-65
2022/01/10 11:19:41;;;;;;;110.72;60.08;;;6.00;99.90;;;;;;4884816;29;20038;-65
2022/01/10 11:22:07;;;;;;;76.78;35.83;;;6.00;99.90;;;;;;4879402;29;20035;-65
2022/01/10 11:24:32;;;;;;;75.20;44.42;;;6.00;99.90;;;;;;4891777;29;20115;-65
2022/01/10 11:26:58;;;;;;;44.47;16.77;;;6.10;99.90;;;;;;4885970;29;20059;-65
2022/01/10 11:29:23;;;;;;;45.03;22.05;;;6.10;99.90;;;;;;4903079;29;20829;-65
2022/01/10 11:31:49;;;;;;;37.10;15.95;;;6.00;99.90;;;;;;4890688;29;20028;-65
2022/01/10 11:34:14;;;;;;;25.15;12.52;;;6.00;99.90;;;;;;4902146;29;20067;-65
2022/01/10 11:36:40;;;;;;;27.10;9.93;;;6.00;99.90;;;;;;4894293;29;20052;-65
2022/01/10 11:39:05;;;;;;;31.38;12.80;;;5.90;99.90;;;;;;4882744;29;20409;-65
2022/01/10 11:41:31;;;;;;;33.40;11.25;;;5.90;99.90;;;;;;4902563;29;20045;-65
2022/01/10 11:44:01;;;;;;;28.58;10.35;;;5.90;99.90;;;;;;4901337;29;20753;-65
2022/01/10 11:46:26;;;;;;;29.58;10.13;;;5.90;99.90;;;;;;4895440;29;20119;-65
2022/01/10 11:48:52;;;;;;;25.73;9.77;;;5.90;99.90;;;;;;4898755;29;20190;-65
2022/01/10 11:51:17;;;;;;;35.75;13.07;;;5.90;99.90;;;;;;4881650;29;20117;-65
2022/01/10 11:53:43;;;;;;;35.28;14.02;;;5.90;99.90;;;;;;4880203;29;20078;-65
2022/01/10 11:56:08;;;;;;;34.15;13.00;;;5.90;99.90;;;;;;4882434;29;20047;-65
2022/01/10 11:58:34;;;;;;;91.22;35.70;;;5.80;99.90;;;;;;4889052;29;20835;-65
2022/01/10 12:00:59;;;;;;;124.40;57.58;;;5.80;99.90;;;;;;4891758;29;20036;-65
2022/01/10 12:03:25;;;;;;;76.68;33.67;;;5.70;99.90;;;;;;4898215;29;20046;-65
2022/01/10 12:05:50;;;;;;;65.78;27.88;;;5.70;99.90;;;;;;4886571;29;20492;-65
2022/01/10 12:08:16;;;;;;;46.63;16.70;;;5.60;99.90;;;;;;4893944;29;20024;-65
2022/01/10 12:10:41;;;;;;;38.63;16.38;;;5.70;99.90;;;;;;4897324;29;20043;-65
2022/01/10 12:13:09;;;;;;;33.17;14.38;;;5.60;99.90;;;;;;4882248;29;20115;-65
2022/01/10 12:15:35;;;;;;;29.70;11.52;;;5.50;99.90;;;;;;4882677;29;20038;-65
2022/01/10 12:18:01;;;;;;;25.08;11.07;;;5.60;99.90;;;;;;4886238;29;20029;-65
2022/01/10 12:20:26;;;;;;;27.73;10.23;;;5.40;99.90;;;;;;4899226;29;20184;-65
2022/01/10 12:22:52;;;;;;;24.13;10.55;;;5.40;99.90;;;;;;4903101;29;20035;-65
2022/01/10 12:25:18;;;;;;;30.77;11.68;;;5.30;99.90;;;;;;4886371;29;20036;-64
2022/01/10 12:27:43;;;;;;;37.85;12.88;;;5.40;99.90;;;;;;4901192;29;20437;-65
2022/01/10 12:30:09;;;;;;;60.58;23.55;;;5.50;99.90;;;;;;4892774;29;20035;-65
2022/01/10 12:32:35;;;;;;;44.08;19.42;;;5.60;99.90;;;;;;4896991;29;20612;-65
2022/01/10 12:35:01;;;;;;;43.70;17.98;;;5.60;99.90;;;;;;4866991;29;20412;-65
2022/01/10 12:37:26;;;;;;;36.55;15.25;;;5.60;99.90;;;;;;4898645;29;20044;-65
2022/01/10 12:39:52;;;;;;;40.30;14.32;;;5.70;99.90;;;;;;4884095;29;20099;-65